createdAt,value
2023-01-27T00:03:28.347Z,79.20
2023-01-27T00:08:35.795Z,83.80
2023-01-27T00:18:48.545Z,75.30
2023-01-27T00:29:18.920Z,68.70
2023-01-27T00:34:25.937Z,71.00
2023-01-27T00:44:38.997Z,57.30
2023-01-27T00:49:46.359Z,59.80
2023-01-27T00:59:59.982Z,75.30
2023-01-27T01:05:08.530Z,86.10
2023-01-27T01:10:16.408Z,67.20
2023-01-27T01:15:23.798Z,71.20
2023-01-27T01:20:30.963Z,54.40
2023-01-27T01:25:38.817Z,54.30
2023-01-27T01:30:46.019Z,54.00
2023-01-27T01:35:53.407Z,63.20
2023-01-27T01:46:10.768Z,62.40
2023-01-27T01:51:22.900Z,59.20
2023-01-27T01:56:33.740Z,57.60
2023-01-27T02:01:41.305Z,51.60
2023-01-27T02:06:56.373Z,53.60
2023-01-27T02:12:04.902Z,52.60
2023-01-27T02:17:14.788Z,54.70
2023-01-27T02:22:28.718Z,51.90
2023-01-27T02:27:36.334Z,59.40
2023-01-27T02:32:44.637Z,54.60
2023-01-27T02:37:54.318Z,42.60
2023-01-27T02:43:01.834Z,51.70
2023-01-27T02:48:09.542Z,41.90
2023-01-27T02:53:17.115Z,44.90
2023-01-27T02:58:24.756Z,35.90
2023-01-27T03:08:37.935Z,44.70
2023-01-27T03:13:46.254Z,31.80
2023-01-27T03:18:56.744Z,32.40
2023-01-27T03:24:04.205Z,36.80
2023-01-27T03:29:28.863Z,48.50
2023-01-27T03:34:36.171Z,45.20
2023-01-27T03:40:01.269Z,42.50
2023-01-27T03:45:29.069Z,45.80
2023-01-27T03:50:42.632Z,38.00
2023-01-27T03:55:49.903Z,42.30
2023-01-27T04:01:00.226Z,43.40
2023-01-27T04:06:27.191Z,28.90
2023-01-27T04:11:52.556Z,36.50
2023-01-27T04:17:02.329Z,44.20
2023-01-27T04:22:12.150Z,39.50
2023-01-27T04:27:20.611Z,41.20
2023-01-27T04:32:28.125Z,41.10
2023-01-27T04:37:35.630Z,44.00
2023-01-27T04:47:48.748Z,36.30
2023-01-27T04:58:01.961Z,34.10
2023-01-27T05:03:10.548Z,27.90
2023-01-27T05:08:19.062Z,44.50
2023-01-27T05:13:26.312Z,44.70
2023-01-27T05:18:34.555Z,49.90
2023-01-27T05:23:42.889Z,40.60
2023-01-27T05:28:51.345Z,40.00
2023-01-27T05:34:00.270Z,43.70
2023-01-27T05:39:08.973Z,48.20
2023-01-27T05:44:16.800Z,39.60
2023-01-27T05:49:23.927Z,37.00
2023-01-27T05:59:37.677Z,42.10
2023-01-27T06:04:45.605Z,50.80
2023-01-27T06:09:53.569Z,48.00
2023-01-27T06:15:01.580Z,46.00
2023-01-27T06:20:10.973Z,53.70
2023-01-27T06:25:18.831Z,33.50
2023-01-27T06:30:26.671Z,50.50
2023-01-27T06:35:35.063Z,45.10
2023-01-27T06:40:43.288Z,40.50
2023-01-27T06:45:52.547Z,31.10
2023-01-27T06:51:00.441Z,45.40
2023-01-27T06:56:10.703Z,46.10
2023-01-27T07:01:18.806Z,30.60
2023-01-27T07:06:26.373Z,37.30
2023-01-27T07:11:33.753Z,41.00
2023-01-27T07:16:41.474Z,52.60
2023-01-27T07:21:49.044Z,45.80
2023-01-27T07:26:56.355Z,39.30
2023-01-27T07:37:10.176Z,40.80
2023-01-27T07:42:18.577Z,23.10
2023-01-27T07:47:25.767Z,40.30
2023-01-27T07:57:39.245Z,36.60
2023-01-27T08:02:51.327Z,46.30
2023-01-27T08:07:59.590Z,45.80
2023-01-27T08:13:07.130Z,46.20
2023-01-27T08:18:14.624Z,39.00
2023-01-27T08:23:24.591Z,47.60
2023-01-27T08:28:33.929Z,39.20
2023-01-27T08:33:42.759Z,34.70
2023-01-27T08:38:52.550Z,35.70
2023-01-27T08:44:00.435Z,47.80
2023-01-27T08:49:07.935Z,48.00
2023-01-27T08:54:16.053Z,55.60
2023-01-27T08:59:23.219Z,39.90
2023-01-27T09:09:38.214Z,38.70
2023-01-27T09:14:46.186Z,38.40
2023-01-27T09:19:54.891Z,33.30
2023-01-27T09:25:02.077Z,40.10
2023-01-27T09:35:19.813Z,50.20
2023-01-27T09:40:37.445Z,49.80
2023-01-27T09:46:08.985Z,36.40
2023-01-27T09:51:26.167Z,47.70
2023-01-27T09:56:47.063Z,23.90
2023-01-27T10:02:05.796Z,48.40
2023-01-27T10:07:30.269Z,50.90
2023-01-27T10:12:50.216Z,53.30
2023-01-27T10:18:09.523Z,53.30
2023-01-27T10:23:32.834Z,40.70
2023-01-27T10:28:48.114Z,43.50
2023-01-27T10:33:57.173Z,23.20
2023-01-27T10:39:21.556Z,45.50
2023-01-27T10:44:44.693Z,61.50
2023-01-27T10:49:57.657Z,55.50
2023-01-27T10:55:15.185Z,41.20
2023-01-27T11:01:05.077Z,55.90
2023-01-27T11:06:05.738Z,54.60
2023-01-27T11:11:31.054Z,53.10
2023-01-27T11:16:42.004Z,53.80
2023-01-27T11:22:06.741Z,43.00
2023-01-27T11:27:24.137Z,46.00
2023-01-27T11:32:44.246Z,42.40
2023-01-27T11:38:00.662Z,52.50
2023-01-27T11:43:18.983Z,40.90
2023-01-27T11:48:28.000Z,51.80
2023-01-27T11:53:40.454Z,33.60
2023-01-27T11:58:54.807Z,43.40
2023-01-27T12:04:07.981Z,57.10
2023-01-27T12:09:34.675Z,33.40
2023-01-27T12:14:49.060Z,23.80
2023-01-27T12:19:58.886Z,50.40
2023-01-27T12:25:15.574Z,46.60
2023-01-27T12:30:26.399Z,54.70
2023-01-27T12:35:38.357Z,44.90
2023-01-27T12:40:49.432Z,50.90
2023-01-27T12:46:25.170Z,53.80
2023-01-27T12:51:45.302Z,47.00
2023-01-27T12:56:53.857Z,50.00
2023-01-27T13:02:06.710Z,37.40
2023-01-27T13:07:21.673Z,39.10
2023-01-27T13:12:31.608Z,38.10
2023-01-27T13:17:45.794Z,55.10
2023-01-27T13:22:56.208Z,60.20
2023-01-27T13:28:09.183Z,44.80
2023-01-27T13:33:28.324Z,39.70
2023-01-27T13:38:44.691Z,41.30
2023-01-27T13:44:01.445Z,35.90
2023-01-27T13:49:33.737Z,52.20
2023-01-27T13:54:42.946Z,45.50
2023-01-27T14:00:04.673Z,50.40
2023-01-27T14:05:28.380Z,44.40
2023-01-27T14:10:42.526Z,34.30
2023-01-27T14:15:56.301Z,55.60
2023-01-27T14:21:40.706Z,53.60
2023-01-27T14:27:02.724Z,46.60
2023-01-27T14:32:20.991Z,46.50
2023-01-27T14:37:36.804Z,38.80
2023-01-27T14:42:51.892Z,43.30
2023-01-27T14:48:09.844Z,47.90
2023-01-27T14:53:37.879Z,54.10
2023-01-27T15:04:22.390Z,42.70
2023-01-27T15:09:59.606Z,35.90
2023-01-27T15:15:28.803Z,40.70
2023-01-27T15:20:58.431Z,35.60
2023-01-27T15:26:09.338Z,36.20
2023-01-27T15:31:29.139Z,42.40
2023-01-27T15:36:40.392Z,31.40
2023-01-27T15:42:12.897Z,29.60
2023-01-27T15:47:27.081Z,29.30
2023-01-27T15:52:38.273Z,25.90
2023-01-27T15:57:46.529Z,22.50
2023-01-27T16:02:57.262Z,16.60
2023-01-27T16:08:11.961Z,23.40
2023-01-27T16:13:25.516Z,21.10
2023-01-27T16:18:46.057Z,14.30
2023-01-27T16:23:58.392Z,25.20
2023-01-27T16:29:30.115Z,21.60
2023-01-27T16:34:46.467Z,16.20
2023-01-27T16:40:02.852Z,10.60
2023-01-27T16:45:20.320Z,15.20
2023-01-27T16:50:45.971Z,17.00
2023-01-27T16:56:02.645Z,20.30
2023-01-27T17:01:19.825Z,18.20
2023-01-27T17:11:35.808Z,21.70
2023-01-27T17:16:46.008Z,17.50
2023-01-27T17:21:57.056Z,23.60
2023-01-27T17:27:10.293Z,23.10
2023-01-27T17:32:26.253Z,30.40
2023-01-27T17:37:34.752Z,21.60
2023-01-27T17:42:44.890Z,27.90
2023-01-27T17:47:52.814Z,19.40
2023-01-27T17:53:00.212Z,32.30
2023-01-27T17:58:11.510Z,29.70
2023-01-27T18:03:24.035Z,16.40
2023-01-27T18:08:37.323Z,24.60
2023-01-27T18:13:44.585Z,24.50
2023-01-27T18:24:00.418Z,30.20
2023-01-27T18:29:17.564Z,27.80
2023-01-27T18:34:29.694Z,27.90
2023-01-27T18:39:42.415Z,25.30
2023-01-27T18:44:51.839Z,11.20
2023-01-27T18:50:08.783Z,37.40
2023-01-27T18:55:20.476Z,32.80
2023-01-27T19:00:30.532Z,27.20
2023-01-27T19:05:38.875Z,32.60
2023-01-27T19:10:46.631Z,19.90
2023-01-27T19:15:56.298Z,24.10
2023-01-27T19:21:04.370Z,27.90
2023-01-27T19:26:18.541Z,24.50
2023-01-27T19:31:26.288Z,22.20
2023-01-27T19:36:38.517Z,23.00
2023-01-27T19:41:47.008Z,29.40
2023-01-27T19:46:55.917Z,25.30
2023-01-27T19:52:04.352Z,27.40
2023-01-27T19:57:18.734Z,28.00
2023-01-27T20:02:26.185Z,27.20
2023-01-27T20:07:33.848Z,32.20
2023-01-27T20:12:41.302Z,27.50
2023-01-27T20:17:48.527Z,23.30
2023-01-27T20:28:03.034Z,29.30
2023-01-27T20:33:14.938Z,29.40
2023-01-27T20:38:22.878Z,25.80
2023-01-27T20:43:35.182Z,27.80
2023-01-27T20:48:43.202Z,32.60
2023-01-27T20:53:50.826Z,29.90
2023-01-27T20:58:58.311Z,34.40
2023-01-27T21:04:05.733Z,31.00
2023-01-27T21:09:13.226Z,25.50
2023-01-27T21:14:21.560Z,20.20
2023-01-27T21:19:29.280Z,31.20
2023-01-27T21:24:37.185Z,29.50
2023-01-27T21:29:45.410Z,33.70
2023-01-27T21:34:52.896Z,23.80
2023-01-27T21:40:00.226Z,25.70
2023-01-27T21:45:16.584Z,34.60
2023-01-27T21:50:24.140Z,30.30
2023-01-27T21:55:32.515Z,27.70
2023-01-27T22:00:40.437Z,27.50
2023-01-27T22:05:48.750Z,31.10
2023-01-27T22:10:55.934Z,35.20
2023-01-27T22:21:09.696Z,16.00
2023-01-27T22:26:19.794Z,27.50
2023-01-27T22:31:28.826Z,27.60
2023-01-27T22:36:38.087Z,28.80
2023-01-27T22:41:46.703Z,31.50
2023-01-27T22:46:54.295Z,30.40
2023-01-27T22:52:03.241Z,30.30
2023-01-27T22:57:10.677Z,29.00
2023-01-27T23:02:19.213Z,32.80
2023-01-27T23:07:28.924Z,28.60
2023-01-27T23:12:36.706Z,18.80
2023-01-27T23:17:44.854Z,20.60
2023-01-27T23:22:52.985Z,29.70
2023-01-27T23:28:01.223Z,35.20
2023-01-27T23:33:08.874Z,26.90
2023-01-27T23:38:31.434Z,26.40
2023-01-27T23:43:39.968Z,29.70
2023-01-27T23:48:52.464Z,24.90
2023-01-27T23:53:59.728Z,34.10
2023-01-27T23:59:07.034Z,23.60
